aviador You're here:

KGPT Decoded Metar

GULFPORT in MS, USA
Report Time2017-06-27 04:53:00
UTC Time2017-06-27 05:21:16
Flight Rules vfr VFR
WindCalm
Visibility9999 m
Phenomena:N/A
Clouds:N/A
Expected CloudBase > 2,000 ft AGL from Temp-Dew spread
CeilingNone
Temp24°C (ISA +9)
Dew Point19°C (74% RH)
QNH1017 hPa
Density Alt1,257 ft
Elevation46 ft
Report Wrong Elevation
Raw Report
KGPT 270453Z 00000KT 10SM CLR 24/19 A3004 RMK AO2 SLP172
T02390194=

Extra information for KGPT:More info

Metar Taf Metar & Taf Last 4 Metars F.Rules Stats Wind Profile Meteogram Temp Stats Airport Information Weather charts Add Link Nearby VenuesMetar ALERT Operation Metar Decoded Social comments

AIRNAV info for KGPT